Time;durP1;ratioP1;P1;durP2;ratioP2;P2;SDS_P1;SDS_P2;PMS_P1;PMS_P2;Temp;Humidity;BMP_temperature;BMP_pressure;BME280_temperature;BME280_humidity;BME280_pressure;Samples;Min_cycle;Max_cycle;Signal;HPM_P1;HPM_P2
2022/12/29 00:02:09;;;;;;;9.30;8.60;;;10.50;94.90;;;;;;5131473;27;20389;-90
2022/12/29 00:04:35;;;;;;;7.78;7.07;;;10.50;95.00;;;;;;5115362;27;20433;-90
2022/12/29 00:07:01;;;;;;;8.57;7.87;;;10.50;95.00;;;;;;5113503;27;20397;-88
2022/12/29 00:09:27;;;;;;;7.23;6.63;;;10.50;95.10;;;;;;5132108;27;20400;-89
2022/12/29 00:11:53;;;;;;;6.13;5.53;;;10.50;95.10;;;;;;5131750;27;20397;-88
2022/12/29 00:17:03;;;;;;;6.43;5.75;;;10.60;95.00;;;;;;5132987;27;20405;-89
2022/12/29 00:36:21;;;;;;;4.73;4.30;;;10.80;94.20;;;;;;5127895;27;20386;-89
2022/12/29 00:44:22;;;;;;;3.87;3.50;;;10.90;94.00;;;;;;5128511;27;20452;-90
2022/12/29 00:46:48;;;;;;;4.43;4.00;;;10.90;93.80;;;;;;5110392;27;20536;-89
2022/12/29 00:49:32;;;;;;;4.63;4.00;;;10.90;93.60;;;;;;5127498;27;20421;-90
2022/12/29 00:51:59;;;;;;;4.20;3.80;;;11.00;93.50;;;;;;5128443;27;20769;-90
2022/12/29 00:54:25;;;;;;;4.20;3.90;;;10.90;93.50;;;;;;5127202;27;20437;-89
2022/12/29 00:56:52;;;;;;;4.53;4.03;;;10.90;93.40;;;;;;5128724;27;20407;-90
2022/12/29 00:59:19;;;;;;;4.30;3.90;;;10.90;93.40;;;;;;5110221;27;20431;-90
2022/12/29 01:01:48;;;;;;;4.10;3.67;;;10.90;93.40;;;;;;5127800;27;20399;-89
2022/12/29 01:04:14;;;;;;;4.18;3.55;;;10.90;93.30;;;;;;5110821;27;20419;-91
2022/12/29 01:06:41;;;;;;;3.90;3.58;;;11.00;93.30;;;;;;5109890;27;20482;-91
2022/12/29 01:11:51;;;;;;;4.03;3.63;;;11.00;93.30;;;;;;5111016;27;20408;-91
2022/12/29 01:14:18;;;;;;;3.83;3.30;;;11.20;93.20;;;;;;5090420;28;20404;-88
2022/12/29 01:16:45;;;;;;;3.63;3.20;;;11.00;93.10;;;;;;5089943;28;20847;-89
2022/12/29 01:19:11;;;;;;;3.35;3.05;;;11.00;93.10;;;;;;5089426;28;20432;-93
2022/12/29 01:21:37;;;;;;;3.22;2.50;;;11.00;93.10;;;;;;5106565;28;20404;-90
2022/12/29 01:24:03;;;;;;;3.63;2.75;;;11.00;92.90;;;;;;5106278;28;20409;-91
2022/12/29 01:26:28;;;;;;;3.58;3.28;;;11.10;93.00;;;;;;5107999;28;20867;-90
2022/12/29 01:28:54;;;;;;;3.73;3.43;;;11.10;93.00;;;;;;5088544;28;20443;-91
2022/12/29 01:31:20;;;;;;;3.97;3.58;;;11.10;93.00;;;;;;5090433;28;20410;-90
2022/12/29 01:33:45;;;;;;;3.50;3.20;;;11.10;93.00;;;;;;5089263;28;20416;-91
2022/12/29 01:36:13;;;;;;;3.40;3.10;;;11.10;93.00;;;;;;5089372;28;20392;-88
2022/12/29 01:38:40;;;;;;;3.95;3.55;;;11.10;93.00;;;;;;5089427;28;20467;-91
2022/12/29 01:41:07;;;;;;;4.95;3.45;;;11.10;93.20;;;;;;5106156;28;20399;-90
2022/12/29 01:43:47;;;;;;;4.25;3.40;;;11.10;93.30;;;;;;5106165;28;20820;-92
2022/12/29 01:46:38;;;;;;;4.50;3.90;;;11.00;93.40;;;;;;5088632;28;21111;-90
2022/12/29 01:49:17;;;;;;;4.20;3.60;;;11.00;93.50;;;;;;5089329;28;20475;-88
2022/12/29 01:51:50;;;;;;;4.43;4.00;;;11.00;93.50;;;;;;5088474;28;20414;-88
2022/12/29 01:54:30;;;;;;;5.45;4.50;;;11.00;93.70;;;;;;5088488;28;20439;-89
2022/12/29 01:56:59;;;;;;;5.38;4.85;;;11.10;93.90;;;;;;5089505;28;20419;-89
2022/12/29 01:59:32;;;;;;;6.75;5.25;;;10.90;94.20;;;;;;5088231;28;20456;-91
2022/12/29 02:01:59;;;;;;;6.68;5.97;;;10.90;94.50;;;;;;5106868;28;20457;-91
2022/12/29 02:04:28;;;;;;;7.55;6.63;;;10.80;94.70;;;;;;5106296;28;20401;-91
2022/12/29 02:07:03;;;;;;;7.85;7.20;;;10.70;94.90;;;;;;5088914;28;20400;-90
2022/12/29 02:09:29;;;;;;;8.67;7.67;;;10.70;95.00;;;;;;5089302;28;20469;-91
2022/12/29 02:11:55;;;;;;;8.13;7.43;;;10.70;95.10;;;;;;5105325;28;20416;-91
2022/12/29 02:14:21;;;;;;;9.23;8.32;;;10.60;95.10;;;;;;5089815;28;20407;-88
2022/12/29 02:16:49;;;;;;;9.07;8.17;;;10.60;95.30;;;;;;5088415;28;20845;-88
2022/12/29 02:19:52;;;;;;;12.43;10.05;;;10.60;95.40;;;;;;5089477;28;20432;-93
2022/12/29 02:22:32;;;;;;;10.80;9.67;;;10.60;95.70;;;;;;5089365;28;20415;-91
2022/12/29 02:25:42;;;;;;;18.60;13.25;;;10.50;95.80;;;;;;5088584;28;20465;-91
2022/12/29 02:28:29;;;;;;;15.70;12.27;;;10.50;96.10;;;;;;5088838;28;20469;-93
2022/12/29 02:31:04;;;;;;;15.77;13.38;;;10.40;96.20;;;;;;5106294;28;20778;-89
2022/12/29 02:33:35;;;;;;;13.68;11.65;;;10.40;96.30;;;;;;5105143;28;20416;-91
2022/12/29 02:36:12;;;;;;;14.13;12.00;;;10.40;96.30;;;;;;5106991;28;20411;-92
2022/12/29 02:38:56;;;;;;;11.43;9.23;;;10.40;96.30;;;;;;5088176;28;20447;-91
2022/12/29 02:41:39;;;;;;;9.30;7.97;;;10.30;96.20;;;;;;5105989;28;20412;-90
2022/12/29 02:44:29;;;;;;;13.00;10.10;;;10.30;96.30;;;;;;5088958;28;20435;-91
2022/12/29 02:47:04;;;;;;;17.40;13.20;;;10.30;96.40;;;;;;5105287;28;20416;-92
2022/12/29 02:49:59;;;;;;;14.48;10.88;;;10.30;96.60;;;;;;5089448;28;20419;-93
2022/12/29 02:52:37;;;;;;;17.05;12.48;;;10.30;96.70;;;;;;5084592;28;20412;-91
2022/12/29 02:55:03;;;;;;;9.07;7.03;;;10.30;96.80;;;;;;5088220;28;20468;-89
2022/12/29 02:57:34;;;;;;;6.75;5.50;;;10.10;96.80;;;;;;5089292;28;20403;-91
2022/12/29 03:00:07;;;;;;;8.40;7.50;;;10.10;96.80;;;;;;5104756;28;20511;-90
2022/12/29 03:02:42;;;;;;;6.57;5.10;;;10.00;96.90;;;;;;5092434;28;20413;-87
2022/12/29 03:05:43;;;;;;;4.75;3.80;;;10.00;96.90;;;;;;5109679;28;20409;-91
2022/12/29 03:08:26;;;;;;;5.35;4.40;;;9.90;96.90;;;;;;5104542;28;20400;-90
2022/12/29 03:11:03;;;;;;;6.72;5.60;;;9.90;96.90;;;;;;5093218;28;20491;-90
2022/12/29 03:16:31;;;;;;;5.43;4.90;;;10.00;96.90;;;;;;5109241;28;20910;-88
2022/12/29 03:19:04;;;;;;;5.60;3.47;;;9.90;96.80;;;;;;5109205;28;20419;-91
2022/12/29 03:24:30;;;;;;;3.85;2.10;;;9.80;96.40;;;;;;5107915;28;20436;-90
2022/12/29 03:26:59;;;;;;;4.67;1.50;;;9.70;96.30;;;;;;5091417;28;20495;-91
2022/12/29 03:29:29;;;;;;;5.10;1.65;;;9.70;96.10;;;;;;5090291;28;20403;-89
2022/12/29 03:31:56;;;;;;;6.37;2.40;;;9.80;96.10;;;;;;5092032;28;20471;-89
2022/12/29 03:34:24;;;;;;;5.28;1.27;;;9.60;96.10;;;;;;5089610;28;20982;-91
2022/12/29 03:36:54;;;;;;;5.97;1.75;;;9.70;96.00;;;;;;5092830;28;20783;-90
2022/12/29 03:39:23;;;;;;;4.10;1.20;;;9.60;95.90;;;;;;5108189;28;20428;-89
2022/12/29 03:41:54;;;;;;;5.47;1.40;;;9.50;95.80;;;;;;5092324;28;20926;-91
2022/12/29 03:44:21;;;;;;;4.20;1.10;;;9.50;95.80;;;;;;5108878;28;20416;-88
2022/12/29 03:46:46;;;;;;;3.85;0.90;;;9.60;95.70;;;;;;5107886;28;21024;-88
2022/12/29 03:49:12;;;;;;;3.83;1.30;;;9.40;95.50;;;;;;5091962;28;20491;-91
2022/12/29 03:51:38;;;;;;;4.40;1.13;;;9.40;95.50;;;;;;5108044;28;20883;-89
2022/12/29 03:54:03;;;;;;;4.10;1.10;;;9.40;95.40;;;;;;5092420;28;20923;-90
2022/12/29 03:56:29;;;;;;;3.97;1.20;;;9.40;95.40;;;;;;5108262;28;20418;-91
2022/12/29 03:58:55;;;;;;;4.65;1.17;;;9.50;95.40;;;;;;5108946;28;20457;-90
2022/12/29 04:01:20;;;;;;;5.83;1.50;;;9.30;95.40;;;;;;5091156;28;20491;-88
2022/12/29 04:03:46;;;;;;;3.28;1.23;;;9.30;95.30;;;;;;5091278;28;20430;-91
2022/12/29 04:06:12;;;;;;;5.00;1.00;;;9.30;95.30;;;;;;5109007;28;20445;-89
2022/12/29 04:08:37;;;;;;;3.87;1.57;;;9.50;95.20;;;;;;5090563;28;20444;-91
2022/12/29 04:11:04;;;;;;;4.47;1.08;;;9.30;95.10;;;;;;5108901;28;20476;-89
2022/12/29 04:13:30;;;;;;;4.20;1.00;;;9.30;95.00;;;;;;5089762;28;20400;-89
2022/12/29 04:15:55;;;;;;;4.23;1.20;;;9.30;95.00;;;;;;5092225;28;20453;-90
2022/12/29 04:18:21;;;;;;;4.78;0.70;;;9.30;94.90;;;;;;5090809;28;20432;-87
2022/12/29 04:21:03;;;;;;;4.88;0.52;;;9.40;94.70;;;;;;5091084;28;20912;-90
2022/12/29 04:23:30;;;;;;;5.70;0.70;;;9.30;94.60;;;;;;5108884;28;20800;-91
2022/12/29 04:25:56;;;;;;;4.75;0.60;;;9.30;94.40;;;;;;5090023;28;20403;-88
2022/12/29 04:28:22;;;;;;;5.13;0.50;;;9.40;94.30;;;;;;5108947;28;20902;-91
2022/12/29 04:30:48;;;;;;;5.32;0.90;;;9.30;94.10;;;;;;5089875;28;20800;-89
2022/12/29 04:33:14;;;;;;;6.32;0.50;;;9.30;94.00;;;;;;5107962;28;20419;-88
2022/12/29 04:35:40;;;;;;;8.68;0.50;;;9.30;93.70;;;;;;5107179;28;20400;-90
2022/12/29 04:38:05;;;;;;;6.97;0.70;;;9.30;93.50;;;;;;5107899;28;20408;-90
2022/12/29 04:40:31;;;;;;;7.80;0.77;;;9.30;93.30;;;;;;5090606;28;20488;-88
2022/12/29 04:42:57;;;;;;;8.25;0.60;;;9.30;93.20;;;;;;5090004;28;20762;-89
2022/12/29 04:45:22;;;;;;;8.07;0.60;;;9.30;93.20;;;;;;5090894;28;20412;-92
2022/12/29 04:47:48;;;;;;;10.40;0.67;;;9.30;93.00;;;;;;5089436;28;20800;-90
2022/12/29 04:50:14;;;;;;;10.70;1.00;;;9.30;93.00;;;;;;5091110;28;20408;-90
2022/12/29 04:52:39;;;;;;;8.10;1.00;;;9.20;92.90;;;;;;5089572;28;20404;-89
2022/12/29 04:55:06;;;;;;;9.10;0.97;;;9.20;92.80;;;;;;5090609;28;20948;-89
2022/12/29 04:57:32;;;;;;;7.15;0.50;;;9.20;92.70;;;;;;5089657;28;20460;-89
2022/12/29 04:59:58;;;;;;;7.28;0.77;;;9.20;92.80;;;;;;5089639;28;20432;-89
2022/12/29 05:02:23;;;;;;;7.45;0.60;;;9.20;92.90;;;;;;5107868;28;20887;-91
2022/12/29 05:04:49;;;;;;;9.48;0.70;;;9.20;93.10;;;;;;5090001;28;20495;-90
2022/12/29 05:07:15;;;;;;;9.10;0.70;;;9.10;93.00;;;;;;5090826;28;20401;-91
2022/12/29 05:09:41;;;;;;;8.80;0.70;;;9.10;93.10;;;;;;5106140;28;20809;-89
2022/12/29 05:12:07;;;;;;;8.30;1.00;;;9.20;93.10;;;;;;5090629;28;20404;-89
2022/12/29 05:14:33;;;;;;;8.07;1.08;;;9.10;93.20;;;;;;5089711;28;20411;-89
2022/12/29 05:16:58;;;;;;;10.07;1.00;;;9.10;93.20;;;;;;5090366;28;20424;-89
2022/12/29 05:19:24;;;;;;;10.93;1.08;;;9.10;93.20;;;;;;5107127;28;20428;-88
2022/12/29 05:21:50;;;;;;;12.30;0.83;;;9.10;93.20;;;;;;5106258;28;20713;-88
2022/12/29 05:24:15;;;;;;;10.30;0.83;;;9.00;93.20;;;;;;5089276;28;20408;-88
2022/12/29 05:26:41;;;;;;;8.02;0.98;;;9.00;93.30;;;;;;5105619;28;20392;-88
2022/12/29 05:29:07;;;;;;;9.40;0.88;;;9.00;93.40;;;;;;5092269;27;20432;-92
2022/12/29 05:31:35;;;;;;;9.27;1.00;;;8.90;93.40;;;;;;5109563;27;20406;-92
2022/12/29 05:34:01;;;;;;;8.60;1.27;;;8.90;93.40;;;;;;5128022;27;20402;-90
2022/12/29 05:36:27;;;;;;;8.93;1.07;;;9.00;93.30;;;;;;5109604;27;20415;-89
2022/12/29 05:38:52;;;;;;;9.83;0.77;;;9.00;93.50;;;;;;5109723;27;20513;-90
2022/12/29 05:41:18;;;;;;;9.63;1.23;;;9.00;93.30;;;;;;5110368;27;20414;-90
2022/12/29 05:43:44;;;;;;;9.88;0.80;;;9.10;93.30;;;;;;5108874;27;20491;-91
2022/12/29 05:46:10;;;;;;;11.15;0.90;;;9.20;93.20;;;;;;5127339;27;20690;-90
2022/12/29 05:48:35;;;;;;;8.57;0.80;;;9.20;93.10;;;;;;5126327;27;20402;-89
2022/12/29 05:51:01;;;;;;;8.80;1.17;;;9.20;93.00;;;;;;5110614;27;20395;-90
2022/12/29 05:53:26;;;;;;;9.98;0.90;;;9.20;93.00;;;;;;5108797;27;20402;-89
2022/12/29 05:55:52;;;;;;;10.33;0.90;;;9.20;92.90;;;;;;5126753;27;20531;-89
2022/12/29 05:58:18;;;;;;;9.50;1.00;;;9.30;92.80;;;;;;5126465;27;20958;-89
2022/12/29 06:00:44;;;;;;;11.65;1.15;;;9.40;92.70;;;;;;5125986;27;20395;-88
2022/12/29 06:03:10;;;;;;;7.82;1.08;;;9.40;92.40;;;;;;5127303;27;20407;-92
2022/12/29 06:05:37;;;;;;;9.82;1.40;;;9.50;92.20;;;;;;5126085;27;20458;-92
2022/12/29 06:08:02;;;;;;;9.57;1.30;;;9.50;92.00;;;;;;5110315;27;20395;-90
2022/12/29 06:10:28;;;;;;;12.13;1.30;;;9.50;91.80;;;;;;5107648;27;20422;-90
2022/12/29 06:12:54;;;;;;;11.35;1.33;;;9.50;91.60;;;;;;5109878;28;20490;-92
2022/12/29 06:15:19;;;;;;;10.85;1.08;;;9.40;91.40;;;;;;5108703;27;20996;-90
2022/12/29 06:17:46;;;;;;;10.20;0.98;;;9.40;91.40;;;;;;5108388;27;20436;-91
2022/12/29 06:20:11;;;;;;;14.05;1.45;;;9.50;91.30;;;;;;5126280;27;20430;-88
2022/12/29 06:22:37;;;;;;;11.00;1.70;;;9.40;91.20;;;;;;5108290;27;20486;-91
2022/12/29 06:25:04;;;;;;;11.98;1.65;;;9.40;91.10;;;;;;5126837;27;20406;-89
2022/12/29 06:27:29;;;;;;;13.68;1.63;;;9.40;90.90;;;;;;5107807;27;20426;-88
2022/12/29 06:29:55;;;;;;;15.00;1.50;;;9.40;91.00;;;;;;5126179;27;20445;-88
2022/12/29 06:32:21;;;;;;;13.13;2.00;;;9.40;90.90;;;;;;5107788;28;20441;-88
2022/12/29 06:34:46;;;;;;;16.98;2.00;;;9.40;91.00;;;;;;5097849;28;20469;-89
2022/12/29 06:37:12;;;;;;;12.30;1.87;;;9.40;91.10;;;;;;5087855;28;20404;-88
2022/12/29 06:39:38;;;;;;;13.90;1.73;;;9.30;91.10;;;;;;5088215;28;20451;-91
2022/12/29 06:42:04;;;;;;;13.80;1.90;;;9.30;91.20;;;;;;5106177;28;20400;-91
2022/12/29 06:44:29;;;;;;;12.65;1.90;;;9.20;91.20;;;;;;5104444;28;20403;-90
2022/12/29 06:46:55;;;;;;;17.20;1.87;;;9.20;91.20;;;;;;5088327;28;20416;-90
2022/12/29 06:49:21;;;;;;;17.97;2.30;;;9.20;91.20;;;;;;5104520;28;20428;-90
2022/12/29 06:51:46;;;;;;;16.13;1.88;;;9.40;91.20;;;;;;5105685;28;20396;-89
2022/12/29 06:54:12;;;;;;;17.75;2.13;;;9.10;91.20;;;;;;5088222;28;20439;-88
2022/12/29 06:56:38;;;;;;;15.00;1.80;;;9.10;91.10;;;;;;5087521;28;20486;-87
2022/12/29 06:59:04;;;;;;;15.98;1.92;;;9.20;91.00;;;;;;5092765;28;20428;-86
2022/12/29 07:01:30;;;;;;;14.18;1.75;;;9.20;91.00;;;;;;5087759;28;20440;-90
2022/12/29 07:03:55;;;;;;;15.10;1.75;;;9.40;90.90;;;;;;5105621;28;20480;-87
2022/12/29 07:06:21;;;;;;;14.13;1.52;;;9.20;90.90;;;;;;5086833;28;20409;-88
2022/12/29 07:08:47;;;;;;;16.58;2.15;;;9.20;90.80;;;;;;5088547;28;20919;-88
2022/12/29 07:11:12;;;;;;;15.40;1.93;;;9.20;90.90;;;;;;5087780;28;20409;-87
2022/12/29 07:13:38;;;;;;;13.57;2.10;;;9.20;90.70;;;;;;5087568;28;20405;-91
2022/12/29 07:16:08;;;;;;;15.93;1.83;;;9.20;90.80;;;;;;5104681;28;20403;-88
2022/12/29 07:18:34;;;;;;;14.18;1.58;;;9.10;91.00;;;;;;5104462;28;20868;-89
2022/12/29 07:20:59;;;;;;;13.88;2.13;;;9.10;90.90;;;;;;5088160;28;20488;-89
2022/12/29 07:23:25;;;;;;;14.45;2.30;;;9.20;91.00;;;;;;5103636;28;20404;-88
2022/12/29 07:26:09;;;;;;;11.32;1.30;;;9.20;91.00;;;;;;5087970;28;20983;-88
2022/12/29 07:28:35;;;;;;;14.07;2.10;;;9.30;90.90;;;;;;5086526;28;20874;-88
2022/12/29 07:31:01;;;;;;;15.98;2.20;;;9.30;90.90;;;;;;5105410;28;20418;-91
2022/12/29 07:33:31;;;;;;;14.77;1.83;;;9.40;90.90;;;;;;5087923;28;20444;-91
2022/12/29 07:35:58;;;;;;;15.38;2.15;;;9.40;90.80;;;;;;5087569;28;20413;-89
2022/12/29 07:38:23;;;;;;;16.15;1.73;;;9.40;90.70;;;;;;5087995;28;20428;-89
2022/12/29 07:40:49;;;;;;;14.30;1.47;;;9.40;90.60;;;;;;5086883;28;20423;-89
2022/12/29 07:43:15;;;;;;;14.45;2.15;;;9.40;90.60;;;;;;5088219;28;20397;-88
2022/12/29 07:45:40;;;;;;;14.50;1.67;;;9.60;90.50;;;;;;5103438;28;20412;-88
2022/12/29 07:48:09;;;;;;;10.07;1.53;;;9.50;90.70;;;;;;5105949;28;20412;-89
2022/12/29 07:50:35;;;;;;;11.32;1.20;;;9.50;90.70;;;;;;5090624;28;20493;-88
2022/12/29 07:53:01;;;;;;;12.15;1.45;;;9.50;90.80;;;;;;5107459;28;20435;-87
2022/12/29 07:55:27;;;;;;;14.25;1.77;;;9.50;90.70;;;;;;5091195;28;20414;-86
2022/12/29 07:57:54;;;;;;;12.80;1.73;;;9.50;90.80;;;;;;5107462;28;21328;-87
2022/12/29 08:00:20;;;;;;;14.17;2.20;;;9.60;90.90;;;;;;5091458;28;20424;-89
2022/12/29 08:02:45;;;;;;;13.60;1.88;;;9.60;90.80;;;;;;5107053;28;20420;-87
2022/12/29 08:05:11;;;;;;;16.40;2.10;;;9.60;90.70;;;;;;5108456;28;20447;-88
2022/12/29 08:07:37;;;;;;;15.13;2.10;;;9.60;90.50;;;;;;5107476;28;20400;-86
2022/12/29 08:10:03;;;;;;;13.32;2.22;;;9.60;90.60;;;;;;5090678;28;20839;-88
2022/12/29 08:12:29;;;;;;;16.40;2.90;;;9.60;90.30;;;;;;5090479;28;20491;-88
2022/12/29 08:14:54;;;;;;;17.13;2.05;;;9.60;90.20;;;;;;5089778;28;20436;-88
2022/12/29 08:17:20;;;;;;;15.30;2.20;;;9.60;90.00;;;;;;5107797;28;20891;-87
2022/12/29 08:19:46;;;;;;;16.75;3.00;;;9.60;89.20;;;;;;5106762;28;20445;-89
2022/12/29 08:22:12;;;;;;;17.63;2.43;;;9.70;89.40;;;;;;5091756;28;20412;-90
2022/12/29 08:24:38;;;;;;;14.95;2.35;;;10.00;89.40;;;;;;5089654;28;20430;-87
2022/12/29 08:27:03;;;;;;;18.05;2.80;;;9.70;88.90;;;;;;5090401;28;20396;-89
2022/12/29 08:29:29;;;;;;;17.30;2.27;;;9.70;89.10;;;;;;5107250;28;20484;-87
2022/12/29 08:31:55;;;;;;;16.50;2.20;;;9.60;89.70;;;;;;5089992;28;20774;-90
2022/12/29 08:34:20;;;;;;;17.40;2.65;;;9.60;89.90;;;;;;5103805;28;20426;-89
2022/12/29 08:36:46;;;;;;;18.37;2.63;;;9.80;89.60;;;;;;5085969;28;20415;-88
2022/12/29 08:39:11;;;;;;;14.70;2.45;;;9.60;89.40;;;;;;5086499;28;20415;-89
2022/12/29 08:41:37;;;;;;;18.40;2.27;;;9.60;89.80;;;;;;5085516;28;20765;-88
2022/12/29 08:44:03;;;;;;;16.37;2.10;;;9.60;90.00;;;;;;5087640;28;20585;-88
2022/12/29 08:46:28;;;;;;;17.27;2.28;;;9.60;90.10;;;;;;5085776;28;20803;-89
2022/12/29 08:48:54;;;;;;;20.70;2.73;;;9.60;90.30;;;;;;5086673;28;20410;-89
2022/12/29 08:51:19;;;;;;;20.58;2.50;;;9.60;90.10;;;;;;5086685;28;20398;-90
2022/12/29 08:53:45;;;;;;;15.65;2.42;;;9.60;90.00;;;;;;5069427;28;20501;-89
2022/12/29 08:56:11;;;;;;;15.73;2.10;;;9.60;90.20;;;;;;5069954;28;20410;-89
2022/12/29 08:58:37;;;;;;;17.58;2.80;;;9.60;90.20;;;;;;5085303;28;20430;-88
2022/12/29 09:01:03;;;;;;;14.82;2.70;;;9.60;90.20;;;;;;5069577;28;20398;-88
2022/12/29 09:03:29;;;;;;;20.75;3.10;;;9.60;90.10;;;;;;5085621;28;20963;-89
2022/12/29 09:05:55;;;;;;;17.25;2.60;;;9.60;90.30;;;;;;5086695;28;20410;-88
2022/12/29 09:08:22;;;;;;;19.38;2.88;;;9.60;91.10;;;;;;5068530;28;20398;-88
2022/12/29 09:10:48;;;;;;;15.80;2.23;;;9.60;91.40;;;;;;5069001;28;20438;-89
2022/12/29 09:13:15;;;;;;;22.83;3.00;;;9.60;91.20;;;;;;5086096;28;20460;-90
2022/12/29 09:15:41;;;;;;;23.40;3.50;;;9.50;91.10;;;;;;5085394;28;20481;-89
2022/12/29 09:18:09;;;;;;;19.60;2.97;;;9.50;91.30;;;;;;5069500;28;20810;-88
2022/12/29 09:20:34;;;;;;;22.30;2.80;;;9.80;91.30;;;;;;5084927;28;20497;-86
2022/12/29 09:23:00;;;;;;;21.63;3.65;;;9.60;91.00;;;;;;5086353;28;20489;-87
2022/12/29 09:25:26;;;;;;;18.15;2.45;;;9.60;90.90;;;;;;5085135;28;20402;-87
2022/12/29 09:27:53;;;;;;;17.23;2.77;;;9.50;91.00;;;;;;5068655;28;20414;-88
2022/12/29 09:30:20;;;;;;;19.23;3.00;;;9.60;91.30;;;;;;5068469;28;20402;-87
2022/12/29 09:32:46;;;;;;;18.93;2.63;;;9.60;91.50;;;;;;5089110;27;21965;-89
2022/12/29 09:35:13;;;;;;;20.13;2.30;;;9.50;91.60;;;;;;5120183;27;20829;-85
2022/12/29 09:37:38;;;;;;;16.80;1.90;;;9.50;91.70;;;;;;5106045;27;20483;-89
2022/12/29 09:40:05;;;;;;;18.23;2.40;;;9.50;91.90;;;;;;5121063;27;20505;-88
2022/12/29 09:42:50;;;;;;;14.90;2.00;;;9.40;91.70;;;;;;5115086;27;20406;-86
2022/12/29 09:45:21;;;;;;;16.00;2.13;;;9.40;91.60;;;;;;5121305;27;20765;-89
2022/12/29 09:47:47;;;;;;;14.57;2.43;;;9.50;91.90;;;;;;5121089;27;20405;-88
2022/12/29 09:50:24;;;;;;;12.33;1.90;;;9.50;92.10;;;;;;5116233;27;20413;-87
2022/12/29 09:52:57;;;;;;;16.23;3.03;;;9.50;92.10;;;;;;5107456;27;20413;-89
2022/12/29 09:55:29;;;;;;;13.90;2.45;;;9.40;92.60;;;;;;5112741;27;20403;-91
2022/12/29 09:58:03;;;;;;;12.25;2.10;;;9.40;93.00;;;;;;5116131;27;20436;-87
2022/12/29 10:01:14;;;;;;;17.80;2.57;;;9.20;93.30;;;;;;5099120;27;20806;-90
2022/12/29 10:03:54;;;;;;;17.55;2.10;;;9.20;93.90;;;;;;5119654;27;20413;-88
2022/12/29 10:06:32;;;;;;;15.40;2.40;;;9.00;94.00;;;;;;5098271;27;20417;-89
2022/12/29 10:08:58;;;;;;;17.80;2.45;;;9.00;94.20;;;;;;5115274;27;20417;-89
2022/12/29 10:11:26;;;;;;;15.32;2.40;;;9.00;94.40;;;;;;5096046;27;20414;-91
2022/12/29 10:14:12;;;;;;;21.83;3.17;;;9.00;94.60;;;;;;5098636;27;20398;-92
2022/12/29 10:16:58;;;;;;;15.97;2.53;;;9.00;94.60;;;;;;5129237;27;20417;-90
2022/12/29 10:19:32;;;;;;;15.30;2.33;;;9.00;94.70;;;;;;5130523;27;20429;-87
2022/12/29 10:22:12;;;;;;;16.20;2.40;;;9.00;94.80;;;;;;5129635;27;20411;-90
2022/12/29 10:24:38;;;;;;;16.67;2.42;;;9.00;94.70;;;;;;5112386;27;20480;-91
2022/12/29 10:27:10;;;;;;;13.35;2.50;;;9.00;94.60;;;;;;5112430;27;20534;-88
2022/12/29 10:29:42;;;;;;;14.65;2.58;;;9.00;94.60;;;;;;5112153;27;20401;-90
2022/12/29 10:32:36;;;;;;;17.10;2.47;;;9.00;94.70;;;;;;5111838;27;20788;-90
2022/12/29 10:35:13;;;;;;;16.58;2.53;;;9.10;94.60;;;;;;5109079;27;20792;-92
2022/12/29 10:37:46;;;;;;;16.40;2.40;;;9.10;94.20;;;;;;5090998;28;20415;-91
2022/12/29 10:40:33;;;;;;;15.93;2.23;;;9.20;94.20;;;;;;5101199;27;21299;-90
2022/12/29 10:43:00;;;;;;;24.90;3.63;;;9.20;93.90;;;;;;5127413;27;20405;-89
2022/12/29 10:45:30;;;;;;;19.20;2.63;;;9.20;94.20;;;;;;5106640;27;20763;-92
2022/12/29 10:48:03;;;;;;;16.88;2.70;;;9.20;94.20;;;;;;5104331;28;20409;-90
2022/12/29 10:50:29;;;;;;;19.10;3.60;;;9.20;94.00;;;;;;5108734;27;20415;-90
2022/12/29 10:53:00;;;;;;;18.63;3.13;;;9.20;93.90;;;;;;5109194;28;20493;-90
2022/12/29 10:55:30;;;;;;;18.55;3.30;;;9.20;93.90;;;;;;5091349;28;20969;-89
2022/12/29 10:57:59;;;;;;;22.17;3.42;;;9.20;94.00;;;;;;5109722;28;20475;-90
2022/12/29 11:00:25;;;;;;;19.30;2.87;;;9.20;93.90;;;;;;5108038;28;20479;-89
2022/12/29 11:03:17;;;;;;;21.20;3.30;;;9.30;94.00;;;;;;5092071;28;20410;-90
2022/12/29 11:05:57;;;;;;;26.15;3.72;;;9.30;93.80;;;;;;5091520;28;20403;-91
2022/12/29 11:08:27;;;;;;;21.70;3.53;;;9.30;93.90;;;;;;5108335;28;20953;-92
2022/12/29 11:11:02;;;;;;;21.15;3.15;;;9.30;93.80;;;;;;5092752;28;20421;-90
2022/12/29 11:13:34;;;;;;;24.17;3.10;;;9.30;93.70;;;;;;5091281;28;20418;-93
2022/12/29 11:16:00;;;;;;;18.48;3.08;;;9.40;93.90;;;;;;5096071;27;20825;-91
2022/12/29 11:18:32;;;;;;;23.98;3.70;;;9.40;93.90;;;;;;5129146;27;20420;-90
2022/12/29 11:21:01;;;;;;;20.85;3.55;;;9.40;94.00;;;;;;5128523;27;20453;-92
2022/12/29 11:23:31;;;;;;;24.45;4.07;;;9.60;93.60;;;;;;5113661;27;20492;-90
2022/12/29 11:26:22;;;;;;;23.97;4.37;;;9.50;93.30;;;;;;5115490;27;20933;-90
2022/12/29 11:29:15;;;;;;;19.98;2.97;;;9.60;92.80;;;;;;5133576;27;20399;-91
2022/12/29 11:31:43;;;;;;;22.17;3.43;;;9.70;92.40;;;;;;5103308;27;20773;-88
2022/12/29 11:34:16;;;;;;;18.80;3.10;;;9.80;92.40;;;;;;5114941;27;20399;-90
2022/12/29 11:36:42;;;;;;;19.80;2.80;;;9.80;92.20;;;;;;5097070;27;20804;-90
2022/12/29 11:39:39;;;;;;;18.00;2.30;;;9.90;91.70;;;;;;5111276;27;20425;-90
2022/12/29 11:42:12;;;;;;;17.33;2.90;;;9.90;91.30;;;;;;5111667;27;20406;-90
2022/12/29 11:44:43;;;;;;;18.17;2.80;;;9.90;91.50;;;;;;5106771;27;20398;-90
2022/12/29 11:47:21;;;;;;;15.07;2.78;;;9.90;91.20;;;;;;5111661;27;20413;-88
2022/12/29 11:49:51;;;;;;;15.68;2.47;;;9.90;90.70;;;;;;5094699;27;20470;-88
2022/12/29 11:52:22;;;;;;;14.23;2.08;;;9.90;90.90;;;;;;5093735;27;20395;-89
2022/12/29 11:54:48;;;;;;;20.38;4.93;;;9.90;90.90;;;;;;5112986;27;20730;-89
2022/12/29 11:57:16;;;;;;;16.73;2.72;;;10.00;91.00;;;;;;5094423;27;20410;-90
2022/12/29 11:59:49;;;;;;;16.95;2.33;;;10.00;91.00;;;;;;5094271;27;20517;-89
2022/12/29 12:02:31;;;;;;;13.18;2.17;;;10.00;90.70;;;;;;5111611;27;20438;-88
2022/12/29 12:05:20;;;;;;;14.85;1.92;;;10.10;91.00;;;;;;5110737;27;20414;-89
2022/12/29 12:08:07;;;;;;;13.80;1.90;;;10.10;90.60;;;;;;5111632;27;20411;-89
2022/12/29 12:10:44;;;;;;;12.05;1.88;;;10.20;90.90;;;;;;5110489;27;20406;-89
2022/12/29 12:13:35;;;;;;;11.98;1.40;;;10.40;90.60;;;;;;5110746;27;20406;-90
2022/12/29 12:16:06;;;;;;;11.93;1.67;;;10.60;89.00;;;;;;5122959;27;20403;-89
2022/12/29 12:18:40;;;;;;;8.00;1.38;;;10.60;87.90;;;;;;5110637;27;20434;-88
2022/12/29 12:21:18;;;;;;;8.38;1.00;;;10.50;87.00;;;;;;5094331;27;20474;-88
2022/12/29 12:24:06;;;;;;;9.52;0.93;;;10.40;87.30;;;;;;5111283;27;20398;-88
2022/12/29 12:26:39;;;;;;;11.90;2.57;;;10.30;87.60;;;;;;5111704;27;20457;-90
2022/12/29 12:29:22;;;;;;;10.50;1.35;;;10.20;87.20;;;;;;5114918;27;20409;-89
2022/12/29 12:31:59;;;;;;;9.90;1.38;;;10.30;86.90;;;;;;5131585;27;20767;-89
2022/12/29 12:34:32;;;;;;;11.60;1.92;;;10.50;86.70;;;;;;5113768;27;20405;-90
2022/12/29 12:37:02;;;;;;;13.68;2.28;;;10.40;86.40;;;;;;5114464;27;20405;-90
2022/12/29 12:40:00;;;;;;;11.40;1.65;;;10.30;87.40;;;;;;5130682;27;20426;-90
2022/12/29 12:42:58;;;;;;;11.43;1.33;;;10.40;87.80;;;;;;5115235;27;20460;-90
2022/12/29 12:46:01;;;;;;;10.73;1.85;;;10.40;87.60;;;;;;5082509;27;20442;-88
2022/12/29 12:48:49;;;;;;;10.32;1.30;;;10.40;86.90;;;;;;5124321;27;20553;-91
2022/12/29 12:51:23;;;;;;;10.32;1.08;;;10.40;87.00;;;;;;5131455;27;20412;-89
2022/12/29 12:54:04;;;;;;;8.38;1.25;;;10.30;86.50;;;;;;5131321;27;20409;-89
2022/12/29 12:56:29;;;;;;;9.90;1.05;;;10.10;86.90;;;;;;5130481;27;20467;-90
2022/12/29 12:59:10;;;;;;;9.90;1.08;;;10.10;87.10;;;;;;5114253;27;20511;-90
2022/12/29 13:01:51;;;;;;;7.15;1.00;;;10.00;88.10;;;;;;5113127;27;20413;-89
2022/12/29 13:04:41;;;;;;;10.30;1.30;;;9.90;88.30;;;;;;5131469;27;20419;-89
2022/12/29 13:07:21;;;;;;;10.55;2.08;;;9.90;88.70;;;;;;5111100;27;20913;-90
2022/12/29 13:10:15;;;;;;;9.05;0.93;;;9.90;89.10;;;;;;5092778;27;20455;-90
2022/12/29 13:13:10;;;;;;;8.47;0.80;;;10.00;88.80;;;;;;5093854;27;20413;-92
2022/12/29 13:16:07;;;;;;;8.75;0.90;;;10.30;88.00;;;;;;5110427;27;20413;-91
2022/12/29 13:19:10;;;;;;;10.43;1.23;;;10.50;87.20;;;;;;5081534;27;20497;-92
2022/12/29 13:21:57;;;;;;;8.88;0.90;;;10.80;85.10;;;;;;5111060;27;20802;-92
2022/12/29 13:24:37;;;;;;;8.97;0.93;;;10.60;84.90;;;;;;5093595;27;20826;-90
2022/12/29 13:27:15;;;;;;;9.13;0.90;;;10.50;85.10;;;;;;5109763;27;20405;-88
2022/12/29 13:29:59;;;;;;;10.27;1.10;;;10.40;85.70;;;;;;5094120;27;20473;-91
2022/12/29 13:32:59;;;;;;;9.75;0.93;;;10.20;86.20;;;;;;5092876;27;20417;-90
2022/12/29 13:35:50;;;;;;;8.90;1.05;;;10.00;86.90;;;;;;5093080;27;20403;-93
2022/12/29 13:38:29;;;;;;;9.73;0.93;;;9.90;88.00;;;;;;5094254;27;20410;-91
2022/12/29 13:41:01;;;;;;;8.63;1.00;;;9.80;89.30;;;;;;5092657;27;21567;-94
2022/12/29 13:43:29;;;;;;;11.70;0.85;;;9.70;89.00;;;;;;5110045;27;20398;-93